sensor_id;sensor_type;location;lat;lon;timestamp;P1;durP1;ratioP1;P2;durP2;ratioP2
75426;SDS011;64007;50.632;13.700;2024-03-02T00:00:02;97.05;;;36.80;;
75426;SDS011;64007;50.632;13.700;2024-03-02T00:02:56;85.57;;;34.50;;
75426;SDS011;64007;50.632;13.700;2024-03-02T00:05:22;90.70;;;33.70;;
75426;SDS011;64007;50.632;13.700;2024-03-02T00:07:54;80.30;;;33.50;;
75426;SDS011;64007;50.632;13.700;2024-03-02T00:10:22;86.15;;;34.80;;
75426;SDS011;64007;50.632;13.700;2024-03-02T00:12:55;103.85;;;37.78;;
75426;SDS011;64007;50.632;13.700;2024-03-02T00:18:30;98.43;;;39.28;;
75426;SDS011;64007;50.632;13.700;2024-03-02T00:20:56;105.72;;;39.72;;
75426;SDS011;64007;50.632;13.700;2024-03-02T00:23:23;122.03;;;45.35;;
75426;SDS011;64007;50.632;13.700;2024-03-02T00:25:53;113.28;;;42.40;;
75426;SDS011;64007;50.632;13.700;2024-03-02T00:28:20;107.95;;;40.90;;
75426;SDS011;64007;50.632;13.700;2024-03-02T00:33:16;120.05;;;43.50;;
75426;SDS011;64007;50.632;13.700;2024-03-02T00:35:44;106.35;;;39.35;;
75426;SDS011;64007;50.632;13.700;2024-03-02T00:38:10;90.05;;;36.70;;
75426;SDS011;64007;50.632;13.700;2024-03-02T00:40:36;93.68;;;36.53;;
75426;SDS011;64007;50.632;13.700;2024-03-02T00:43:02;91.32;;;35.03;;
75426;SDS011;64007;50.632;13.700;2024-03-02T00:45:28;95.47;;;37.35;;
75426;SDS011;64007;50.632;13.700;2024-03-02T00:47:55;110.00;;;41.35;;
75426;SDS011;64007;50.632;13.700;2024-03-02T00:50:21;93.25;;;38.25;;
75426;SDS011;64007;50.632;13.700;2024-03-02T00:52:47;109.32;;;39.15;;
75426;SDS011;64007;50.632;13.700;2024-03-02T00:55:15;102.22;;;39.65;;
75426;SDS011;64007;50.632;13.700;2024-03-02T00:57:41;100.72;;;40.15;;
75426;SDS011;64007;50.632;13.700;2024-03-02T01:00:07;119.18;;;45.88;;
75426;SDS011;64007;50.632;13.700;2024-03-02T01:02:35;117.95;;;42.10;;
75426;SDS011;64007;50.632;13.700;2024-03-02T01:05:01;103.07;;;40.47;;
75426;SDS011;64007;50.632;13.700;2024-03-02T01:07:27;104.57;;;38.75;;
75426;SDS011;64007;50.632;13.700;2024-03-02T01:09:52;103.93;;;39.25;;
75426;SDS011;64007;50.632;13.700;2024-03-02T01:12:18;116.85;;;42.35;;
75426;SDS011;64007;50.632;13.700;2024-03-02T01:14:44;100.28;;;40.10;;
75426;SDS011;64007;50.632;13.700;2024-03-02T01:17:10;114.07;;;39.85;;
75426;SDS011;64007;50.632;13.700;2024-03-02T01:19:35;101.00;;;38.88;;
75426;SDS011;64007;50.632;13.700;2024-03-02T01:22:01;100.97;;;38.33;;
75426;SDS011;64007;50.632;13.700;2024-03-02T01:24:27;93.40;;;39.08;;
75426;SDS011;64007;50.632;13.700;2024-03-02T01:26:52;124.65;;;42.85;;
75426;SDS011;64007;50.632;13.700;2024-03-02T01:29:18;116.78;;;42.75;;
75426;SDS011;64007;50.632;13.700;2024-03-02T01:31:45;125.10;;;43.38;;
75426;SDS011;64007;50.632;13.700;2024-03-02T01:34:10;126.50;;;45.97;;
75426;SDS011;64007;50.632;13.700;2024-03-02T01:36:38;122.65;;;45.33;;
75426;SDS011;64007;50.632;13.700;2024-03-02T01:39:03;132.07;;;44.97;;
75426;SDS011;64007;50.632;13.700;2024-03-02T01:41:29;116.70;;;44.58;;
75426;SDS011;64007;50.632;13.700;2024-03-02T01:43:55;111.35;;;42.42;;
75426;SDS011;64007;50.632;13.700;2024-03-02T01:46:21;106.57;;;39.83;;
75426;SDS011;64007;50.632;13.700;2024-03-02T01:48:46;99.88;;;39.33;;
75426;SDS011;64007;50.632;13.700;2024-03-02T01:51:13;100.38;;;38.40;;
75426;SDS011;64007;50.632;13.700;2024-03-02T01:53:38;97.93;;;37.17;;
75426;SDS011;64007;50.632;13.700;2024-03-02T01:56:04;89.82;;;35.38;;
75426;SDS011;64007;50.632;13.700;2024-03-02T01:58:30;98.63;;;36.83;;
75426;SDS011;64007;50.632;13.700;2024-03-02T02:00:56;95.15;;;35.80;;
75426;SDS011;64007;50.632;13.700;2024-03-02T02:03:22;99.90;;;36.50;;
75426;SDS011;64007;50.632;13.700;2024-03-02T02:05:47;93.78;;;35.53;;
75426;SDS011;64007;50.632;13.700;2024-03-02T02:08:13;119.78;;;42.13;;
75426;SDS011;64007;50.632;13.700;2024-03-02T02:10:39;106.63;;;40.53;;
75426;SDS011;64007;50.632;13.700;2024-03-02T02:13:05;110.05;;;39.35;;
75426;SDS011;64007;50.632;13.700;2024-03-02T02:15:31;125.50;;;41.10;;
75426;SDS011;64007;50.632;13.700;2024-03-02T02:17:57;118.55;;;41.00;;
75426;SDS011;64007;50.632;13.700;2024-03-02T02:20:24;117.00;;;41.25;;
75426;SDS011;64007;50.632;13.700;2024-03-02T02:22:56;107.38;;;37.72;;
75426;SDS011;64007;50.632;13.700;2024-03-02T02:25:27;101.00;;;36.78;;
75426;SDS011;64007;50.632;13.700;2024-03-02T02:27:54;118.70;;;39.22;;
75426;SDS011;64007;50.632;13.700;2024-03-02T02:30:22;117.75;;;40.45;;
75426;SDS011;64007;50.632;13.700;2024-03-02T02:32:49;116.28;;;40.47;;
75426;SDS011;64007;50.632;13.700;2024-03-02T02:35:15;118.80;;;41.13;;
75426;SDS011;64007;50.632;13.700;2024-03-02T02:37:41;123.15;;;40.53;;
75426;SDS011;64007;50.632;13.700;2024-03-02T02:40:07;111.18;;;38.47;;
75426;SDS011;64007;50.632;13.700;2024-03-02T02:42:34;116.70;;;38.40;;
75426;SDS011;64007;50.632;13.700;2024-03-02T02:45:00;123.70;;;41.85;;
75426;SDS011;64007;50.632;13.700;2024-03-02T02:47:25;129.70;;;40.03;;
75426;SDS011;64007;50.632;13.700;2024-03-02T02:49:51;112.53;;;39.30;;
75426;SDS011;64007;50.632;13.700;2024-03-02T02:52:17;109.93;;;39.15;;
75426;SDS011;64007;50.632;13.700;2024-03-02T02:54:44;109.00;;;37.28;;
75426;SDS011;64007;50.632;13.700;2024-03-02T02:57:09;100.32;;;36.03;;
75426;SDS011;64007;50.632;13.700;2024-03-02T02:59:35;111.13;;;36.92;;
75426;SDS011;64007;50.632;13.700;2024-03-02T03:02:01;115.43;;;40.60;;
75426;SDS011;64007;50.632;13.700;2024-03-02T03:04:27;107.88;;;38.22;;
75426;SDS011;64007;50.632;13.700;2024-03-02T03:06:52;92.32;;;35.60;;
75426;SDS011;64007;50.632;13.700;2024-03-02T03:09:18;88.75;;;34.50;;
75426;SDS011;64007;50.632;13.700;2024-03-02T03:11:44;95.20;;;33.90;;
75426;SDS011;64007;50.632;13.700;2024-03-02T03:14:09;98.22;;;34.80;;
75426;SDS011;64007;50.632;13.700;2024-03-02T03:16:35;100.85;;;34.65;;
75426;SDS011;64007;50.632;13.700;2024-03-02T03:19:01;88.78;;;33.00;;
75426;SDS011;64007;50.632;13.700;2024-03-02T03:21:26;97.05;;;33.30;;
75426;SDS011;64007;50.632;13.700;2024-03-02T03:23:52;85.57;;;31.23;;
75426;SDS011;64007;50.632;13.700;2024-03-02T03:26:18;181.85;;;35.85;;
75426;SDS011;64007;50.632;13.700;2024-03-02T03:28:43;96.55;;;32.53;;
75426;SDS011;64007;50.632;13.700;2024-03-02T03:31:09;173.35;;;34.47;;
75426;SDS011;64007;50.632;13.700;2024-03-02T03:33:36;131.93;;;36.00;;
75426;SDS011;64007;50.632;13.700;2024-03-02T03:36:01;195.45;;;35.35;;
75426;SDS011;64007;50.632;13.700;2024-03-02T03:38:29;97.32;;;34.80;;
75426;SDS011;64007;50.632;13.700;2024-03-02T03:40:55;360.17;;;37.47;;
75426;SDS011;64007;50.632;13.700;2024-03-02T03:43:21;147.95;;;35.03;;
75426;SDS011;64007;50.632;13.700;2024-03-02T03:45:46;111.97;;;34.70;;
75426;SDS011;64007;50.632;13.700;2024-03-02T03:48:12;116.13;;;35.45;;
75426;SDS011;64007;50.632;13.700;2024-03-02T03:50:38;102.97;;;34.83;;
75426;SDS011;64007;50.632;13.700;2024-03-02T03:53:03;121.28;;;35.90;;
75426;SDS011;64007;50.632;13.700;2024-03-02T03:55:29;139.27;;;36.28;;
75426;SDS011;64007;50.632;13.700;2024-03-02T03:57:55;121.55;;;37.10;;
75426;SDS011;64007;50.632;13.700;2024-03-02T04:00:20;311.17;;;38.08;;
75426;SDS011;64007;50.632;13.700;2024-03-02T04:02:46;124.78;;;34.47;;
75426;SDS011;64007;50.632;13.700;2024-03-02T04:05:12;157.10;;;37.88;;
75426;SDS011;64007;50.632;13.700;2024-03-02T04:07:37;113.28;;;35.10;;
75426;SDS011;64007;50.632;13.700;2024-03-02T04:10:08;106.80;;;34.72;;
75426;SDS011;64007;50.632;13.700;2024-03-02T04:12:38;102.75;;;36.47;;
75426;SDS011;64007;50.632;13.700;2024-03-02T04:15:04;134.32;;;36.53;;
75426;SDS011;64007;50.632;13.700;2024-03-02T04:17:32;99.32;;;34.72;;
75426;SDS011;64007;50.632;13.700;2024-03-02T04:19:59;99.95;;;34.90;;
75426;SDS011;64007;50.632;13.700;2024-03-02T04:22:26;152.38;;;35.97;;
75426;SDS011;64007;50.632;13.700;2024-03-02T04:24:52;131.07;;;35.63;;
75426;SDS011;64007;50.632;13.700;2024-03-02T04:27:18;168.32;;;36.92;;
75426;SDS011;64007;50.632;13.700;2024-03-02T04:29:43;170.38;;;37.70;;
75426;SDS011;64007;50.632;13.700;2024-03-02T04:32:09;134.13;;;39.28;;
75426;SDS011;64007;50.632;13.700;2024-03-02T04:34:34;224.70;;;37.55;;
75426;SDS011;64007;50.632;13.700;2024-03-02T04:37:00;144.07;;;36.63;;
75426;SDS011;64007;50.632;13.700;2024-03-02T04:39:26;151.98;;;37.80;;
75426;SDS011;64007;50.632;13.700;2024-03-02T04:41:52;187.32;;;36.67;;
75426;SDS011;64007;50.632;13.700;2024-03-02T04:44:18;122.25;;;39.72;;
75426;SDS011;64007;50.632;13.700;2024-03-02T04:46:43;115.65;;;35.53;;
75426;SDS011;64007;50.632;13.700;2024-03-02T04:49:09;119.05;;;37.30;;
75426;SDS011;64007;50.632;13.700;2024-03-02T04:51:35;119.05;;;36.92;;
75426;SDS011;64007;50.632;13.700;2024-03-02T04:54:00;114.13;;;36.85;;
75426;SDS011;64007;50.632;13.700;2024-03-02T04:56:26;114.20;;;36.35;;
75426;SDS011;64007;50.632;13.700;2024-03-02T04:59:05;115.32;;;34.80;;
75426;SDS011;64007;50.632;13.700;2024-03-02T05:01:31;113.15;;;35.90;;
75426;SDS011;64007;50.632;13.700;2024-03-02T05:03:58;111.95;;;36.85;;
75426;SDS011;64007;50.632;13.700;2024-03-02T05:06:24;118.22;;;38.00;;
75426;SDS011;64007;50.632;13.700;2024-03-02T05:08:49;120.93;;;39.75;;
75426;SDS011;64007;50.632;13.700;2024-03-02T05:11:15;110.75;;;37.05;;
75426;SDS011;64007;50.632;13.700;2024-03-02T05:13:59;106.80;;;35.80;;
75426;SDS011;64007;50.632;13.700;2024-03-02T05:16:25;117.18;;;38.33;;
75426;SDS011;64007;50.632;13.700;2024-03-02T05:18:50;113.43;;;36.58;;
75426;SDS011;64007;50.632;13.700;2024-03-02T05:21:16;109.25;;;36.20;;
75426;SDS011;64007;50.632;13.700;2024-03-02T05:23:42;111.70;;;36.35;;
75426;SDS011;64007;50.632;13.700;2024-03-02T05:26:07;102.95;;;34.95;;
75426;SDS011;64007;50.632;13.700;2024-03-02T05:28:33;101.32;;;35.45;;
75426;SDS011;64007;50.632;13.700;2024-03-02T05:30:59;106.65;;;33.35;;
75426;SDS011;64007;50.632;13.700;2024-03-02T05:33:24;102.40;;;35.00;;
75426;SDS011;64007;50.632;13.700;2024-03-02T05:35:50;99.75;;;33.85;;
75426;SDS011;64007;50.632;13.700;2024-03-02T05:38:16;96.53;;;32.78;;
75426;SDS011;64007;50.632;13.700;2024-03-02T05:40:41;93.72;;;31.77;;
75426;SDS011;64007;50.632;13.700;2024-03-02T05:43:07;86.22;;;30.23;;
75426;SDS011;64007;50.632;13.700;2024-03-02T05:45:33;79.07;;;29.40;;
75426;SDS011;64007;50.632;13.700;2024-03-02T05:47:58;80.43;;;29.52;;
75426;SDS011;64007;50.632;13.700;2024-03-02T05:50:24;78.70;;;27.88;;
75426;SDS011;64007;50.632;13.700;2024-03-02T05:52:50;79.72;;;29.77;;
75426;SDS011;64007;50.632;13.700;2024-03-02T05:55:15;74.18;;;27.27;;
75426;SDS011;64007;50.632;13.700;2024-03-02T05:57:41;74.80;;;28.60;;
75426;SDS011;64007;50.632;13.700;2024-03-02T06:00:09;74.53;;;27.95;;
75426;SDS011;64007;50.632;13.700;2024-03-02T06:02:39;73.68;;;28.58;;
75426;SDS011;64007;50.632;13.700;2024-03-02T06:05:06;75.05;;;26.83;;
75426;SDS011;64007;50.632;13.700;2024-03-02T06:07:32;68.63;;;27.23;;
75426;SDS011;64007;50.632;13.700;2024-03-02T06:09:58;70.25;;;26.92;;
75426;SDS011;64007;50.632;13.700;2024-03-02T06:12:24;81.13;;;27.02;;
75426;SDS011;64007;50.632;13.700;2024-03-02T06:14:50;66.97;;;26.15;;
75426;SDS011;64007;50.632;13.700;2024-03-02T06:17:15;62.78;;;25.63;;
75426;SDS011;64007;50.632;13.700;2024-03-02T06:19:41;71.10;;;24.63;;
75426;SDS011;64007;50.632;13.700;2024-03-02T06:22:07;66.53;;;26.77;;
75426;SDS011;64007;50.632;13.700;2024-03-02T06:24:36;68.90;;;26.25;;
75426;SDS011;64007;50.632;13.700;2024-03-02T06:27:03;82.18;;;30.05;;
75426;SDS011;64007;50.632;13.700;2024-03-02T06:29:32;87.57;;;33.17;;
75426;SDS011;64007;50.632;13.700;2024-03-02T06:31:58;78.72;;;29.15;;
75426;SDS011;64007;50.632;13.700;2024-03-02T06:34:23;81.30;;;29.27;;
75426;SDS011;64007;50.632;13.700;2024-03-02T06:36:49;70.53;;;26.92;;
75426;SDS011;64007;50.632;13.700;2024-03-02T06:39:15;66.90;;;25.10;;
75426;SDS011;64007;50.632;13.700;2024-03-02T06:41:41;71.85;;;25.98;;
75426;SDS011;64007;50.632;13.700;2024-03-02T06:44:07;63.75;;;26.17;;
75426;SDS011;64007;50.632;13.700;2024-03-02T06:46:33;68.88;;;25.00;;
75426;SDS011;64007;50.632;13.700;2024-03-02T06:48:59;72.45;;;25.95;;
75426;SDS011;64007;50.632;13.700;2024-03-02T06:51:25;62.63;;;25.95;;
75426;SDS011;64007;50.632;13.700;2024-03-02T06:53:50;69.25;;;28.88;;
75426;SDS011;64007;50.632;13.700;2024-03-02T06:56:16;75.65;;;31.70;;
75426;SDS011;64007;50.632;13.700;2024-03-02T06:58:42;74.40;;;26.20;;
75426;SDS011;64007;50.632;13.700;2024-03-02T07:01:08;59.35;;;24.58;;
75426;SDS011;64007;50.632;13.700;2024-03-02T07:03:35;63.10;;;25.80;;
75426;SDS011;64007;50.632;13.700;2024-03-02T07:06:01;60.83;;;25.63;;
75426;SDS011;64007;50.632;13.700;2024-03-02T07:08:26;63.90;;;24.45;;
75426;SDS011;64007;50.632;13.700;2024-03-02T07:10:52;67.50;;;26.45;;
75426;SDS011;64007;50.632;13.700;2024-03-02T07:13:18;65.65;;;26.15;;
75426;SDS011;64007;50.632;13.700;2024-03-02T07:15:44;57.08;;;23.77;;
75426;SDS011;64007;50.632;13.700;2024-03-02T07:18:15;56.30;;;23.37;;
75426;SDS011;64007;50.632;13.700;2024-03-02T07:20:41;68.70;;;26.70;;
75426;SDS011;64007;50.632;13.700;2024-03-02T07:23:07;65.22;;;26.92;;
75426;SDS011;64007;50.632;13.700;2024-03-02T07:25:33;69.72;;;28.23;;
75426;SDS011;64007;50.632;13.700;2024-03-02T07:27:59;74.90;;;30.98;;
75426;SDS011;64007;50.632;13.700;2024-03-02T07:30:25;71.35;;;31.08;;
75426;SDS011;64007;50.632;13.700;2024-03-02T07:32:50;72.15;;;28.70;;
75426;SDS011;64007;50.632;13.700;2024-03-02T07:35:16;65.85;;;28.13;;
75426;SDS011;64007;50.632;13.700;2024-03-02T07:37:43;75.88;;;30.63;;
75426;SDS011;64007;50.632;13.700;2024-03-02T07:40:09;77.40;;;29.40;;
75426;SDS011;64007;50.632;13.700;2024-03-02T07:42:37;74.55;;;28.13;;
75426;SDS011;64007;50.632;13.700;2024-03-02T07:45:04;73.53;;;28.35;;
75426;SDS011;64007;50.632;13.700;2024-03-02T07:47:30;66.22;;;27.55;;
75426;SDS011;64007;50.632;13.700;2024-03-02T07:49:56;74.03;;;28.38;;
75426;SDS011;64007;50.632;13.700;2024-03-02T07:52:21;67.57;;;27.30;;
75426;SDS011;64007;50.632;13.700;2024-03-02T07:54:48;64.80;;;25.65;;
75426;SDS011;64007;50.632;13.700;2024-03-02T07:57:13;62.65;;;23.75;;
75426;SDS011;64007;50.632;13.700;2024-03-02T07:59:39;52.03;;;22.52;;
75426;SDS011;64007;50.632;13.700;2024-03-02T08:02:04;51.33;;;22.15;;
75426;SDS011;64007;50.632;13.700;2024-03-02T08:04:31;50.05;;;21.77;;
75426;SDS011;64007;50.632;13.700;2024-03-02T08:06:56;51.45;;;22.45;;
75426;SDS011;64007;50.632;13.700;2024-03-02T08:09:22;53.17;;;23.35;;
75426;SDS011;64007;50.632;13.700;2024-03-02T08:11:48;53.53;;;22.50;;
75426;SDS011;64007;50.632;13.700;2024-03-02T08:14:14;51.47;;;22.85;;
75426;SDS011;64007;50.632;13.700;2024-03-02T08:16:40;45.40;;;22.13;;
75426;SDS011;64007;50.632;13.700;2024-03-02T08:19:06;56.10;;;24.42;;
75426;SDS011;64007;50.632;13.700;2024-03-02T08:21:34;62.13;;;23.50;;
75426;SDS011;64007;50.632;13.700;2024-03-02T08:24:01;58.53;;;24.02;;
75426;SDS011;64007;50.632;13.700;2024-03-02T08:26:27;64.00;;;25.85;;
75426;SDS011;64007;50.632;13.700;2024-03-02T08:28:59;63.05;;;24.05;;
75426;SDS011;64007;50.632;13.700;2024-03-02T08:31:27;56.50;;;23.48;;
75426;SDS011;64007;50.632;13.700;2024-03-02T08:33:53;48.70;;;23.10;;
75426;SDS011;64007;50.632;13.700;2024-03-02T08:36:19;50.95;;;22.40;;
75426;SDS011;64007;50.632;13.700;2024-03-02T08:38:45;62.15;;;22.80;;
75426;SDS011;64007;50.632;13.700;2024-03-02T08:41:11;61.92;;;25.13;;
75426;SDS011;64007;50.632;13.700;2024-03-02T08:43:40;65.72;;;24.13;;
75426;SDS011;64007;50.632;13.700;2024-03-02T08:46:08;56.95;;;24.63;;
75426;SDS011;64007;50.632;13.700;2024-03-02T08:48:34;58.40;;;23.95;;
75426;SDS011;64007;50.632;13.700;2024-03-02T08:51:00;55.85;;;24.27;;
75426;SDS011;64007;50.632;13.700;2024-03-02T08:53:25;64.65;;;23.77;;
75426;SDS011;64007;50.632;13.700;2024-03-02T08:55:51;61.03;;;24.60;;
75426;SDS011;64007;50.632;13.700;2024-03-02T08:58:17;57.65;;;23.63;;
75426;SDS011;64007;50.632;13.700;2024-03-02T09:00:43;51.90;;;23.70;;
75426;SDS011;64007;50.632;13.700;2024-03-02T09:03:09;54.33;;;22.42;;
75426;SDS011;64007;50.632;13.700;2024-03-02T09:05:35;59.67;;;23.13;;
75426;SDS011;64007;50.632;13.700;2024-03-02T09:08:01;57.80;;;23.30;;
75426;SDS011;64007;50.632;13.700;2024-03-02T09:10:29;48.17;;;22.02;;
75426;SDS011;64007;50.632;13.700;2024-03-02T09:12:54;53.97;;;21.73;;
75426;SDS011;64007;50.632;13.700;2024-03-02T09:15:20;46.97;;;20.17;;
75426;SDS011;64007;50.632;13.700;2024-03-02T09:17:46;49.97;;;21.25;;
75426;SDS011;64007;50.632;13.700;2024-03-02T09:20:12;46.65;;;19.58;;
75426;SDS011;64007;50.632;13.700;2024-03-02T09:22:39;48.25;;;20.83;;
75426;SDS011;64007;50.632;13.700;2024-03-02T09:25:04;45.08;;;20.00;;
75426;SDS011;64007;50.632;13.700;2024-03-02T09:27:32;50.80;;;20.95;;
75426;SDS011;64007;50.632;13.700;2024-03-02T09:29:58;52.83;;;23.48;;
75426;SDS011;64007;50.632;13.700;2024-03-02T09:32:23;49.17;;;22.95;;
75426;SDS011;64007;50.632;13.700;2024-03-02T09:34:49;51.40;;;25.08;;
75426;SDS011;64007;50.632;13.700;2024-03-02T09:37:15;40.20;;;20.25;;
75426;SDS011;64007;50.632;13.700;2024-03-02T09:39:43;38.47;;;19.38;;
75426;SDS011;64007;50.632;13.700;2024-03-02T09:42:09;47.42;;;21.63;;
75426;SDS011;64007;50.632;13.700;2024-03-02T09:44:35;55.17;;;24.58;;
75426;SDS011;64007;50.632;13.700;2024-03-02T09:47:00;41.50;;;20.00;;
75426;SDS011;64007;50.632;13.700;2024-03-02T09:49:26;51.83;;;22.63;;
75426;SDS011;64007;50.632;13.700;2024-03-02T09:51:52;45.70;;;20.45;;
75426;SDS011;64007;50.632;13.700;2024-03-02T09:54:18;47.13;;;21.63;;
75426;SDS011;64007;50.632;13.700;2024-03-02T09:56:44;46.22;;;19.77;;
75426;SDS011;64007;50.632;13.700;2024-03-02T09:59:10;40.00;;;20.00;;
75426;SDS011;64007;50.632;13.700;2024-03-02T10:01:36;43.42;;;20.40;;
75426;SDS011;64007;50.632;13.700;2024-03-02T10:04:01;40.25;;;18.77;;
75426;SDS011;64007;50.632;13.700;2024-03-02T10:06:28;41.60;;;19.52;;
75426;SDS011;64007;50.632;13.700;2024-03-02T10:08:54;46.80;;;21.10;;
75426;SDS011;64007;50.632;13.700;2024-03-02T10:14:09;37.38;;;18.08;;
75426;SDS011;64007;50.632;13.700;2024-03-02T10:16:36;42.88;;;19.23;;
75426;SDS011;64007;50.632;13.700;2024-03-02T10:19:16;40.60;;;19.58;;
75426;SDS011;64007;50.632;13.700;2024-03-02T10:21:53;39.58;;;18.55;;
75426;SDS011;64007;50.632;13.700;2024-03-02T10:24:21;42.72;;;20.27;;
75426;SDS011;64007;50.632;13.700;2024-03-02T10:26:48;41.92;;;20.40;;
75426;SDS011;64007;50.632;13.700;2024-03-02T10:29:14;40.85;;;19.27;;
75426;SDS011;64007;50.632;13.700;2024-03-02T10:31:44;42.63;;;20.17;;
75426;SDS011;64007;50.632;13.700;2024-03-02T10:34:13;41.03;;;19.73;;
75426;SDS011;64007;50.632;13.700;2024-03-02T10:36:41;38.40;;;19.80;;
75426;SDS011;64007;50.632;13.700;2024-03-02T10:39:08;41.97;;;19.98;;
75426;SDS011;64007;50.632;13.700;2024-03-02T10:41:35;50.22;;;21.67;;
75426;SDS011;64007;50.632;13.700;2024-03-02T10:44:03;43.92;;;20.90;;
75426;SDS011;64007;50.632;13.700;2024-03-02T10:46:30;52.83;;;23.30;;
75426;SDS011;64007;50.632;13.700;2024-03-02T10:48:56;48.63;;;24.35;;
75426;SDS011;64007;50.632;13.700;2024-03-02T10:51:26;47.15;;;23.65;;
75426;SDS011;64007;50.632;13.700;2024-03-02T10:53:54;49.35;;;23.70;;
75426;SDS011;64007;50.632;13.700;2024-03-02T10:59:03;49.83;;;23.58;;
75426;SDS011;64007;50.632;13.700;2024-03-02T11:01:36;52.50;;;24.10;;
75426;SDS011;64007;50.632;13.700;2024-03-02T11:04:04;44.65;;;22.17;;
75426;SDS011;64007;50.632;13.700;2024-03-02T11:06:34;52.28;;;23.27;;
75426;SDS011;64007;50.632;13.700;2024-03-02T11:09:04;45.13;;;21.25;;
75426;SDS011;64007;50.632;13.700;2024-03-02T11:11:35;40.55;;;21.38;;
75426;SDS011;64007;50.632;13.700;2024-03-02T11:14:02;45.28;;;22.73;;
75426;SDS011;64007;50.632;13.700;2024-03-02T11:16:34;45.88;;;22.35;;
75426;SDS011;64007;50.632;13.700;2024-03-02T11:19:11;50.17;;;22.00;;
75426;SDS011;64007;50.632;13.700;2024-03-02T11:21:38;49.20;;;21.77;;
75426;SDS011;64007;50.632;13.700;2024-03-02T11:26:46;44.53;;;21.80;;
75426;SDS011;64007;50.632;13.700;2024-03-02T11:32:06;51.08;;;22.42;;
75426;SDS011;64007;50.632;13.700;2024-03-02T11:34:40;49.67;;;21.42;;
75426;SDS011;64007;50.632;13.700;2024-03-02T11:37:10;39.47;;;20.05;;
75426;SDS011;64007;50.632;13.700;2024-03-02T11:39:37;38.58;;;19.85;;
75426;SDS011;64007;50.632;13.700;2024-03-02T11:42:05;44.03;;;20.33;;
75426;SDS011;64007;50.632;13.700;2024-03-02T11:44:33;42.53;;;20.17;;
75426;SDS011;64007;50.632;13.700;2024-03-02T11:46:59;38.75;;;20.75;;
75426;SDS011;64007;50.632;13.700;2024-03-02T11:49:38;39.75;;;20.48;;
75426;SDS011;64007;50.632;13.700;2024-03-02T11:52:07;41.58;;;20.17;;
75426;SDS011;64007;50.632;13.700;2024-03-02T11:54:38;41.75;;;19.80;;
75426;SDS011;64007;50.632;13.700;2024-03-02T11:57:08;44.63;;;20.33;;
75426;SDS011;64007;50.632;13.700;2024-03-02T11:59:34;39.75;;;19.65;;
75426;SDS011;64007;50.632;13.700;2024-03-02T12:02:00;42.63;;;20.67;;
75426;SDS011;64007;50.632;13.700;2024-03-02T12:04:26;41.40;;;20.55;;
75426;SDS011;64007;50.632;13.700;2024-03-02T12:06:55;38.78;;;20.25;;
75426;SDS011;64007;50.632;13.700;2024-03-02T12:09:27;40.67;;;19.33;;
75426;SDS011;64007;50.632;13.700;2024-03-02T12:14:32;37.45;;;19.25;;
75426;SDS011;64007;50.632;13.700;2024-03-02T12:16:59;39.53;;;19.45;;
75426;SDS011;64007;50.632;13.700;2024-03-02T12:19:25;43.30;;;20.02;;
75426;SDS011;64007;50.632;13.700;2024-03-02T12:21:53;47.75;;;20.63;;
75426;SDS011;64007;50.632;13.700;2024-03-02T12:24:20;45.40;;;22.45;;
75426;SDS011;64007;50.632;13.700;2024-03-02T12:26:47;41.05;;;20.10;;
75426;SDS011;64007;50.632;13.700;2024-03-02T12:29:13;49.45;;;20.40;;
75426;SDS011;64007;50.632;13.700;2024-03-02T12:31:40;47.88;;;20.20;;
75426;SDS011;64007;50.632;13.700;2024-03-02T12:34:07;42.58;;;20.35;;
75426;SDS011;64007;50.632;13.700;2024-03-02T12:36:37;42.17;;;20.40;;
75426;SDS011;64007;50.632;13.700;2024-03-02T12:39:04;42.35;;;21.42;;
75426;SDS011;64007;50.632;13.700;2024-03-02T12:41:30;41.75;;;19.73;;
75426;SDS011;64007;50.632;13.700;2024-03-02T12:43:56;34.83;;;19.58;;
75426;SDS011;64007;50.632;13.700;2024-03-02T12:46:21;37.58;;;20.33;;
75426;SDS011;64007;50.632;13.700;2024-03-02T12:48:47;38.63;;;19.75;;
75426;SDS011;64007;50.632;13.700;2024-03-02T12:51:13;42.78;;;18.80;;
75426;SDS011;64007;50.632;13.700;2024-03-02T12:53:39;39.92;;;20.83;;
75426;SDS011;64007;50.632;13.700;2024-03-02T12:56:05;39.28;;;19.88;;
75426;SDS011;64007;50.632;13.700;2024-03-02T12:58:38;43.63;;;20.42;;
75426;SDS011;64007;50.632;13.700;2024-03-02T13:01:07;41.92;;;20.73;;
75426;SDS011;64007;50.632;13.700;2024-03-02T13:03:35;34.00;;;19.90;;
75426;SDS011;64007;50.632;13.700;2024-03-02T13:06:04;47.35;;;23.58;;
75426;SDS011;64007;50.632;13.700;2024-03-02T13:08:31;42.35;;;22.25;;
75426;SDS011;64007;50.632;13.700;2024-03-02T13:10:58;38.05;;;20.45;;
75426;SDS011;64007;50.632;13.700;2024-03-02T13:13:24;41.60;;;21.08;;
75426;SDS011;64007;50.632;13.700;2024-03-02T13:15:49;45.08;;;20.50;;
75426;SDS011;64007;50.632;13.700;2024-03-02T13:18:17;43.97;;;20.70;;
75426;SDS011;64007;50.632;13.700;2024-03-02T13:20:43;38.28;;;20.67;;
75426;SDS011;64007;50.632;13.700;2024-03-02T13:23:09;39.00;;;19.75;;
75426;SDS011;64007;50.632;13.700;2024-03-02T13:25:35;38.80;;;20.10;;
75426;SDS011;64007;50.632;13.700;2024-03-02T13:28:01;41.13;;;20.15;;
75426;SDS011;64007;50.632;13.700;2024-03-02T13:30:27;41.78;;;20.33;;
75426;SDS011;64007;50.632;13.700;2024-03-02T13:32:53;38.53;;;19.05;;
75426;SDS011;64007;50.632;13.700;2024-03-02T13:35:19;34.03;;;18.45;;
75426;SDS011;64007;50.632;13.700;2024-03-02T13:37:44;35.78;;;18.15;;
75426;SDS011;64007;50.632;13.700;2024-03-02T13:40:10;36.85;;;18.88;;
75426;SDS011;64007;50.632;13.700;2024-03-02T13:42:39;34.78;;;15.98;;
75426;SDS011;64007;50.632;13.700;2024-03-02T13:45:05;32.03;;;15.98;;
75426;SDS011;64007;50.632;13.700;2024-03-02T13:47:32;35.80;;;16.80;;
75426;SDS011;64007;50.632;13.700;2024-03-02T13:49:57;36.05;;;19.38;;
75426;SDS011;64007;50.632;13.700;2024-03-02T13:52:23;33.67;;;17.20;;
75426;SDS011;64007;50.632;13.700;2024-03-02T13:54:51;38.55;;;18.50;;
75426;SDS011;64007;50.632;13.700;2024-03-02T13:57:17;37.85;;;19.58;;
75426;SDS011;64007;50.632;13.700;2024-03-02T13:59:45;37.33;;;19.13;;
75426;SDS011;64007;50.632;13.700;2024-03-02T14:02:11;30.58;;;18.15;;
75426;SDS011;64007;50.632;13.700;2024-03-02T14:04:37;37.58;;;19.30;;
75426;SDS011;64007;50.632;13.700;2024-03-02T14:07:04;40.10;;;19.42;;
75426;SDS011;64007;50.632;13.700;2024-03-02T14:09:33;43.30;;;19.33;;
75426;SDS011;64007;50.632;13.700;2024-03-02T14:11:59;33.33;;;18.30;;
75426;SDS011;64007;50.632;13.700;2024-03-02T14:14:26;45.45;;;19.05;;
75426;SDS011;64007;50.632;13.700;2024-03-02T14:16:52;36.08;;;18.63;;
75426;SDS011;64007;50.632;13.700;2024-03-02T14:19:19;34.50;;;17.67;;
75426;SDS011;64007;50.632;13.700;2024-03-02T14:21:46;41.63;;;18.63;;